Time;durP1;ratioP1;P1;durP2;ratioP2;P2;SDS_P1;SDS_P2;PMS_P1;PMS_P2;Temp;Humidity;BMP_temperature;BMP_pressure;BME280_temperature;BME280_humidity;BME280_pressure;Samples;Min_cycle;Max_cycle;Signal;HPM_P1;HPM_P2
2022/06/20 00:00:25;;;;;;;0.40;0.00;;;;;;;24.66;45.31;99539.05;104109;1277;95871;-70
2022/06/20 00:03:02;;;;;;;0.40;0.00;;;;;;;24.60;45.13;99542.40;104015;1277;138801;-70
2022/06/20 00:05:34;;;;;;;0.40;0.00;;;;;;;24.61;45.21;99553.17;104138;1277;98478;-70
2022/06/20 00:08:04;;;;;;;0.40;0.00;;;;;;;24.59;45.20;99555.73;104007;1277;138103;-68
2022/06/20 00:10:32;;;;;;;0.40;0.00;;;;;;;24.49;45.76;99550.17;104272;1277;95313;-70
2022/06/20 00:13:01;;;;;;;0.40;0.00;;;;;;;24.41;45.77;99549.43;104116;1277;96755;-71
2022/06/20 00:15:36;;;;;;;0.40;0.00;;;;;;;24.34;46.13;99543.97;104005;1277;138003;-70
2022/06/20 00:18:06;;;;;;;0.40;0.00;;;;;;;24.27;46.72;99536.73;104079;1277;98297;-70
2022/06/20 00:20:39;;;;;;;0.40;0.00;;;;;;;24.24;47.31;99535.40;104020;1277;138175;-72
2022/06/20 00:23:08;;;;;;;0.40;0.00;;;;;;;24.12;47.50;99521.66;104084;1277;95202;-70
2022/06/20 00:25:37;;;;;;;0.40;0.00;;;;;;;23.97;47.90;99514.34;104103;1280;95231;-70
2022/06/20 00:28:06;;;;;;;0.40;0.00;;;;;;;23.95;47.83;99510.92;104012;1277;137900;-70
2022/06/20 00:30:35;;;;;;;0.40;0.00;;;;;;;23.83;47.91;99502.77;104120;1277;99778;-70
2022/06/20 00:33:04;;;;;;;0.40;0.00;;;;;;;23.69;48.12;99494.36;103973;1277;138044;-69
2022/06/20 00:35:34;;;;;;;0.40;0.00;;;;;;;23.70;48.46;99493.86;104091;1277;96108;-70
2022/06/20 00:38:04;;;;;;;0.40;0.10;;;;;;;23.61;48.84;99481.95;104123;1277;138709;-70
2022/06/20 00:40:36;;;;;;;0.40;0.00;;;;;;;23.42;48.44;99479.20;104122;1277;109808;-68
2022/06/20 00:43:07;;;;;;;0.40;0.10;;;;;;;23.30;48.90;99484.28;104143;1277;99787;-70
2022/06/20 00:45:41;;;;;;;0.40;0.10;;;;;;;23.29;48.67;99489.43;103999;1277;138024;-70
2022/06/20 00:48:18;;;;;;;0.40;0.00;;;;;;;23.34;48.56;99487.48;104241;1277;95468;-70
2022/06/20 00:50:51;;;;;;;0.40;0.10;;;;;;;23.31;48.55;99484.92;104003;1277;140114;-70
2022/06/20 00:53:28;;;;;;;0.40;0.10;;;;;;;23.13;48.53;99479.48;104101;1277;109716;-71
2022/06/20 00:56:05;;;;;;;0.40;0.00;;;;;;;23.07;49.28;99473.55;104113;1279;99435;-68
2022/06/20 00:58:38;;;;;;;0.40;0.10;;;;;;;23.00;48.95;99475.23;104382;1277;108773;-70
2022/06/20 01:01:14;;;;;;;0.40;0.00;;;;;;;23.09;48.89;99491.25;104151;1277;95226;-69
2022/06/20 01:03:51;;;;;;;0.40;0.00;;;;;;;23.23;48.84;99512.97;103999;1277;137893;-71
2022/06/20 01:06:26;;;;;;;0.40;0.10;;;;;;;23.32;48.67;99553.23;104171;1277;109719;-72
2022/06/20 01:09:01;;;;;;;0.40;0.00;;;;;;;23.31;49.08;99549.38;104127;1277;139677;-71
2022/06/20 01:11:48;;;;;;;0.40;0.10;;;;;;;23.22;49.20;99576.14;104204;1277;108671;-69
2022/06/20 01:14:34;;;;;;;0.40;0.00;;;;;;;23.22;49.38;99566.50;104013;1277;138889;-70
2022/06/20 01:17:06;;;;;;;0.40;0.00;;;;;;;23.08;49.50;99570.81;104074;1277;95221;-71
2022/06/20 01:19:56;;;;;;;0.40;0.00;;;;;;;23.15;49.36;99576.20;104098;1277;108659;-71
2022/06/20 01:23:35;;;;;;;0.40;0.10;;;;;;;23.02;49.56;99572.32;104080;1277;99356;-71
2022/06/20 01:26:16;;;;;;;0.40;0.00;;;;;;;23.07;49.78;99572.21;102970;1287;138510;-71
2022/06/20 01:28:51;;;;;;;0.40;0.10;;;;;;;23.00;49.84;99575.34;103227;1287;95819;-70
2022/06/20 01:31:20;;;;;;;0.40;0.10;;;;;;;22.99;49.96;99581.30;103745;1277;95179;-70
2022/06/20 01:33:49;;;;;;;0.40;0.00;;;;;;;22.93;50.02;99570.80;103996;1277;137944;-71
2022/06/20 01:39:08;;;;;;;0.40;0.00;;;;;;;22.80;49.74;99559.59;103994;1280;138548;-71
2022/06/20 01:44:23;;;;;;;0.40;0.10;;;;;;;22.87;49.71;99575.30;104018;1277;138140;-72
2022/06/20 01:46:51;;;;;;;0.40;0.10;;;;;;;22.88;49.81;99576.10;104115;1277;110334;-71
2022/06/20 01:49:23;;;;;;;0.40;0.10;;;;;;;22.87;49.79;99571.27;104127;1277;99325;-69
2022/06/20 01:51:58;;;;;;;0.40;0.10;;;;;;;22.85;49.98;99568.38;103975;1277;138273;-69
2022/06/20 01:54:30;;;;;;;0.40;0.10;;;;;;;22.85;49.68;99567.17;104089;1277;95891;-70
2022/06/20 01:56:58;;;;;;;0.40;0.10;;;;;;;22.88;49.47;99572.66;104038;1277;138077;-70
2022/06/20 01:59:34;;;;;;;0.40;0.00;;;;;;;22.92;49.55;99576.88;103562;1277;109727;-72
2022/06/20 02:02:03;;;;;;;0.40;0.10;;;;;;;22.91;49.37;99574.08;104004;1277;138822;-70
2022/06/20 02:04:33;;;;;;;0.40;0.10;;;;;;;22.90;49.34;99579.53;104104;1277;108705;-72
2022/06/20 02:07:04;;;;;;;0.40;0.10;;;;;;;22.93;49.51;99580.02;104100;1277;95718;-71
2022/06/20 02:09:32;;;;;;;0.40;0.10;;;;;;;22.91;49.92;99576.21;104017;1277;138021;-71
2022/06/20 02:12:02;;;;;;;0.40;0.00;;;;;;;22.84;50.07;99569.00;104126;1277;109561;-71
2022/06/20 02:14:30;;;;;;;0.40;0.00;;;;;;;22.85;50.29;99572.78;104045;1277;138299;-72
2022/06/20 02:17:07;;;;;;;0.40;0.00;;;;;;;22.79;50.06;99573.26;104167;1277;107838;-71
2022/06/20 02:19:43;;;;;;;0.40;0.00;;;;;;;22.83;49.81;99591.02;104222;1277;95249;-71
2022/06/20 02:22:11;;;;;;;0.40;0.00;;;;;;;22.86;49.85;99598.14;104125;1277;137885;-71
2022/06/20 02:24:44;;;;;;;0.40;0.00;;;;;;;22.90;49.96;99610.35;104222;1277;109739;-71
2022/06/20 02:27:35;;;;;;;0.40;0.00;;;;;;;22.93;50.07;99606.30;104120;1277;138006;-70
2022/06/20 02:30:05;;;;;;;0.40;0.10;;;;;;;22.89;50.03;99593.56;104228;1277;108753;-71
2022/06/20 02:32:40;;;;;;;0.40;0.10;;;;;;;22.87;50.02;99585.04;104193;1278;138353;-71
2022/06/20 02:35:13;;;;;;;0.40;0.10;;;;;;;22.81;50.27;99588.13;104298;1277;96467;-71
2022/06/20 02:37:42;;;;;;;0.40;0.10;;;;;;;22.81;50.48;99589.77;104223;1277;109579;-71
2022/06/20 02:40:13;;;;;;;0.40;0.10;;;;;;;22.82;50.61;99592.74;104176;1277;138185;-72
2022/06/20 02:43:03;;;;;;;0.40;0.10;;;;;;;22.82;50.44;99599.80;104179;1278;108795;-71
2022/06/20 02:45:33;;;;;;;0.40;0.00;;;;;;;22.82;50.68;99594.69;104125;1277;138742;-72
2022/06/20 02:48:04;;;;;;;0.40;0.00;;;;;;;22.83;50.81;99603.66;104238;1277;95131;-71
2022/06/20 02:50:38;;;;;;;0.40;0.10;;;;;;;22.80;50.98;99616.50;104119;1277;138473;-71
2022/06/20 02:53:24;;;;;;;0.40;0.10;;;;;;;22.78;51.06;99617.71;104196;1277;99554;-71
2022/06/20 02:55:55;;;;;;;0.40;0.00;;;;;;;22.76;51.44;99617.56;104133;1277;108793;-71
2022/06/20 02:58:28;;;;;;;0.40;0.10;;;;;;;22.76;51.11;99620.59;104169;1277;95723;-71
2022/06/20 03:01:20;;;;;;;0.40;0.00;;;;;;;22.74;51.56;99622.08;104173;1277;95503;-71
2022/06/20 03:03:54;;;;;;;0.40;0.00;;;;;;;22.70;51.81;99623.91;104129;1277;137932;-71
2022/06/20 03:06:31;;;;;;;0.40;0.10;;;;;;;22.65;52.16;99634.13;104131;1278;99622;-71
2022/06/20 03:09:00;;;;;;;0.40;0.00;;;;;;;22.57;52.54;99632.79;104060;1277;139119;-71
2022/06/20 03:11:32;;;;;;;0.40;0.10;;;;;;;22.55;52.90;99630.41;104163;1279;95246;-72
2022/06/20 03:14:03;;;;;;;0.40;0.00;;;;;;;22.53;52.95;99628.64;104238;1277;138151;-71
2022/06/20 03:16:32;;;;;;;0.40;0.10;;;;;;;22.53;53.25;99625.55;104186;1277;109720;-72
2022/06/20 03:19:02;;;;;;;0.40;0.00;;;;;;;22.50;53.49;99632.48;104155;1277;98333;-72
2022/06/20 03:21:38;;;;;;;0.40;0.00;;;;;;;22.46;53.81;99640.30;104085;1277;137941;-70
2022/06/20 03:24:07;;;;;;;0.40;0.10;;;;;;;22.43;53.90;99637.70;104361;1277;95234;-71
2022/06/20 03:26:35;;;;;;;0.40;0.00;;;;;;;22.50;54.14;99646.04;104086;1277;139367;-70
2022/06/20 03:29:03;;;;;;;0.40;0.00;;;;;;;22.49;54.49;99645.60;104193;1277;109749;-70
2022/06/20 03:31:31;;;;;;;0.40;0.10;;;;;;;22.46;54.69;99652.62;104175;1277;99374;-70
2022/06/20 03:33:59;;;;;;;0.40;0.10;;;;;;;22.34;55.39;99652.20;104064;1280;138123;-70
2022/06/20 03:36:28;;;;;;;0.40;0.10;;;;;;;22.27;55.56;99644.12;104208;1277;95226;-70
2022/06/20 03:38:56;;;;;;;0.40;0.00;;;;;;;22.33;55.62;99646.65;104073;1280;139085;-70
2022/06/20 03:41:26;;;;;;;0.40;0.10;;;;;;;22.30;55.95;99645.95;104208;1277;96966;-69
2022/06/20 03:44:00;;;;;;;0.40;0.10;;;;;;;22.29;56.09;99652.38;104172;1277;99384;-70
2022/06/20 03:47:09;;;;;;;0.40;0.00;;;;;;;22.24;56.23;99650.68;104140;1277;108736;-70
2022/06/20 03:49:45;;;;;;;0.40;0.00;;;;;;;22.25;56.43;99646.26;103847;1277;96535;-69
2022/06/20 03:52:20;;;;;;;0.40;0.10;;;;;;;22.30;56.42;99657.92;104082;1277;138593;-71
2022/06/20 03:55:11;;;;;;;0.40;0.00;;;;;;;22.29;56.56;99664.70;104197;1277;109571;-70
2022/06/20 03:57:48;;;;;;;0.40;0.00;;;;;;;22.30;56.68;99655.08;104028;1277;138807;-70
2022/06/20 04:00:22;;;;;;;0.40;0.10;;;;;;;22.39;56.62;99654.86;104159;1277;108782;-70
2022/06/20 04:03:06;;;;;;;0.40;0.10;;;;;;;22.45;56.61;99662.98;104001;1280;139419;-69
2022/06/20 04:05:54;;;;;;;0.40;0.10;;;;;;;22.47;56.54;99674.19;104182;1277;95552;-70
2022/06/20 04:11:26;;;;;;;0.40;0.00;;;;;;;22.43;56.86;99694.52;104220;1277;99367;-71
2022/06/20 04:14:04;;;;;;;0.40;0.00;;;;;;;22.43;56.86;99706.21;104144;1277;107792;-70
2022/06/20 04:16:40;;;;;;;0.40;0.00;;;;;;;22.44;56.82;99705.98;104159;1277;95511;-70
2022/06/20 04:19:15;;;;;;;0.40;0.00;;;;;;;22.50;57.07;99704.20;104132;1277;95239;-71
2022/06/20 04:21:53;;;;;;;0.40;0.00;;;;;;;22.55;56.81;99705.16;104036;1277;138150;-70
2022/06/20 04:24:36;;;;;;;0.40;0.00;;;;;;;22.56;56.60;99698.23;104294;1278;99942;-70
2022/06/20 04:27:11;;;;;;;0.40;0.10;;;;;;;22.64;56.45;99698.59;104042;1280;138295;-70
2022/06/20 04:29:46;;;;;;;0.40;0.00;;;;;;;22.71;56.26;99695.30;104102;1277;95517;-71
2022/06/20 04:32:40;;;;;;;0.40;0.10;;;;;;;22.80;56.41;99703.69;104327;1278;138757;-71
2022/06/20 04:35:42;;;;;;;0.40;0.00;;;;;;;22.83;56.22;99709.95;104156;1278;109782;-70
2022/06/20 04:38:23;;;;;;;0.40;0.10;;;;;;;22.92;56.25;99731.29;104032;1278;141480;-70
2022/06/20 04:40:59;;;;;;;0.40;0.00;;;;;;;22.96;56.38;99746.68;104093;1280;107864;-70
2022/06/20 04:43:39;;;;;;;0.40;0.00;;;;;;;23.06;56.35;99755.92;104054;1280;95684;-70
2022/06/20 04:46:22;;;;;;;0.40;0.00;;;;;;;23.08;56.10;99756.07;104063;1280;139174;-71
2022/06/20 04:48:50;;;;;;;0.40;0.00;;;;;;;23.15;55.98;99763.80;104174;1278;110476;-71
2022/06/20 04:51:23;;;;;;;0.40;0.10;;;;;;;23.21;55.86;99764.56;104111;1278;138039;-71
2022/06/20 04:53:51;;;;;;;0.40;0.00;;;;;;;23.07;55.87;99758.16;104226;1280;108926;-69
2022/06/20 04:56:28;;;;;;;0.40;0.00;;;;;;;22.92;56.02;99748.69;103256;1277;138712;-70
2022/06/20 04:59:09;;;;;;;0.40;0.00;;;;;;;22.85;56.22;99744.91;103507;1278;95133;-70
2022/06/20 05:01:38;;;;;;;0.40;0.10;;;;;;;22.78;56.50;99740.11;103476;1280;110031;-71
2022/06/20 05:04:22;;;;;;;0.40;0.10;;;;;;;22.77;56.66;99754.45;103472;1278;138130;-69
2022/06/20 05:06:53;;;;;;;0.40;0.10;;;;;;;22.75;56.58;99751.55;104525;1277;108803;-70
2022/06/20 05:09:25;;;;;;;0.40;0.10;;;;;;;22.79;56.68;99749.59;103977;1278;138956;-72
2022/06/20 05:12:26;;;;;;;0.40;0.10;;;;;;;22.79;56.57;99773.09;104116;1277;95622;-71
2022/06/20 05:15:35;;;;;;;0.40;0.00;;;;;;;22.81;56.92;99764.27;103987;1278;138325;-70
2022/06/20 05:18:16;;;;;;;0.40;0.10;;;;;;;22.86;56.69;99750.58;103480;1285;98348;-70
2022/06/20 05:20:46;;;;;;;0.40;0.10;;;;;;;22.96;56.64;99763.31;103823;1277;190523;-70
2022/06/20 05:23:23;;;;;;;0.40;0.10;;;;;;;23.05;56.45;99764.52;104317;1278;97046;-70
2022/06/20 05:25:52;;;;;;;0.40;0.10;;;;;;;23.13;56.26;99775.95;104175;1278;95617;-70
2022/06/20 05:28:24;;;;;;;0.40;0.10;;;;;;;23.11;56.32;99781.13;104076;1278;137824;-69
2022/06/20 05:30:53;;;;;;;0.40;0.10;;;;;;;23.11;56.30;99782.60;104169;1277;99403;-70
2022/06/20 05:33:45;;;;;;;0.40;0.10;;;;;;;23.11;56.30;99784.59;104054;1278;138279;-70
2022/06/20 05:36:22;;;;;;;0.40;0.10;;;;;;;23.00;56.56;99787.35;104129;1278;95229;-71
2022/06/20 05:39:19;;;;;;;0.40;0.00;;;;;;;22.96;56.63;99795.87;104037;1278;138699;-71
2022/06/20 05:41:48;;;;;;;0.40;0.00;;;;;;;22.98;56.74;99815.60;104191;1277;109840;-70
2022/06/20 05:44:16;;;;;;;0.40;0.10;;;;;;;22.98;56.49;99804.97;104091;1277;138842;-69
2022/06/20 05:46:50;;;;;;;0.40;0.10;;;;;;;23.04;56.53;99809.32;104163;1277;108934;-70
2022/06/20 05:49:33;;;;;;;0.40;0.00;;;;;;;23.06;56.52;99788.32;104238;1280;95208;-71
2022/06/20 05:52:02;;;;;;;0.40;0.10;;;;;;;23.13;56.43;99769.93;104118;1277;138716;-70
2022/06/20 05:54:37;;;;;;;0.40;0.00;;;;;;;23.14;56.26;99773.36;104133;1278;109654;-70
2022/06/20 05:57:12;;;;;;;0.40;0.00;;;;;;;23.08;56.52;99779.06;104011;1277;138351;-70
2022/06/20 05:59:44;;;;;;;0.40;0.10;;;;;;;23.05;56.60;99763.59;104139;1279;108806;-72
2022/06/20 06:02:39;;;;;;;0.40;0.00;;;;;;;23.09;56.57;99761.05;103898;1280;139146;-70
2022/06/20 06:05:26;;;;;;;0.40;0.00;;;;;;;23.16;56.64;99749.81;104190;1277;96630;-71
2022/06/20 06:08:13;;;;;;;0.40;0.10;;;;;;;23.13;56.55;99740.23;104111;1278;109740;-70
2022/06/20 06:11:41;;;;;;;0.40;0.00;;;;;;;23.09;56.74;99741.19;104089;1278;99294;-69
2022/06/20 06:14:20;;;;;;;0.40;0.00;;;;;;;23.03;57.01;99755.80;103703;1278;138566;-70
2022/06/20 06:17:11;;;;;;;0.40;0.00;;;;;;;23.02;56.80;99744.44;104089;1277;95221;-70
2022/06/20 06:20:21;;;;;;;0.40;0.00;;;;;;;23.11;56.74;99710.42;104063;1278;138478;-70
2022/06/20 06:22:53;;;;;;;0.40;0.10;;;;;;;23.16;56.79;99689.80;104190;1277;108705;-70
2022/06/20 06:25:37;;;;;;;0.40;0.00;;;;;;;23.22;56.58;99691.27;104144;1277;99659;-70
2022/06/20 06:28:15;;;;;;;0.40;0.00;;;;;;;23.25;56.58;99681.06;104015;1280;138280;-70
2022/06/20 06:30:52;;;;;;;0.40;0.00;;;;;;;22.97;57.29;99667.80;104269;1277;95811;-70
2022/06/20 06:33:31;;;;;;;0.40;0.00;;;;;;;22.74;57.87;99665.64;104030;1277;138795;-71
2022/06/20 06:36:12;;;;;;;0.40;0.10;;;;;;;22.64;58.57;99644.70;104180;1278;110183;-70
2022/06/20 06:38:42;;;;;;;0.40;0.00;;;;;;;22.57;59.05;99650.50;104175;1277;139301;-70
2022/06/20 06:41:22;;;;;;;0.40;0.00;;;;;;;22.61;58.83;99658.85;104216;1277;108904;-70
2022/06/20 06:43:51;;;;;;;0.40;0.00;;;;;;;22.91;58.06;99692.91;104222;1277;96048;-70
2022/06/20 06:46:33;;;;;;;0.40;0.00;;;;;;;23.18;57.38;99718.31;104088;1277;138167;-70
2022/06/20 06:49:24;;;;;;;0.40;0.00;;;;;;;23.36;56.73;99730.09;104232;1277;109824;-71
2022/06/20 06:52:09;;;;;;;0.40;0.00;;;;;;;23.50;56.23;99730.27;104203;1277;138155;-69
2022/06/20 06:54:40;;;;;;;0.40;0.00;;;;;;;23.55;56.56;99714.55;102870;1278;110316;-70
2022/06/20 06:57:14;;;;;;;0.40;0.00;;;;;;;23.66;56.08;99688.39;102764;1277;142085;-69
2022/06/20 06:59:48;;;;;;;0.40;0.00;;;;;;;23.73;55.86;99677.59;103345;1277;95567;-71
2022/06/20 07:02:21;;;;;;;0.40;0.00;;;;;;;23.69;55.71;99652.05;103075;1277;138563;-69
2022/06/20 07:05:14;;;;;;;0.40;0.00;;;;;;;23.49;56.83;99643.91;103279;1277;100147;-70
2022/06/20 07:07:51;;;;;;;0.40;0.00;;;;;;;23.41;56.46;99661.36;103487;1277;108965;-70
2022/06/20 07:10:23;;;;;;;0.40;0.10;;;;;;;23.49;56.50;99684.64;103235;1277;138722;-70
2022/06/20 07:12:55;;;;;;;0.40;0.00;;;;;;;23.70;55.98;99736.58;104803;1278;95017;-69
2022/06/20 07:15:24;;;;;;;0.40;0.00;;;;;;;23.77;55.89;99738.48;103647;1278;139072;-67
2022/06/20 07:17:58;;;;;;;0.40;0.00;;;;;;;23.81;55.79;99762.43;103493;1278;100282;-68
2022/06/20 07:20:39;;;;;;;0.40;0.00;;;;;;;23.82;56.08;99763.76;104028;1278;139117;-70
2022/06/20 07:23:14;;;;;;;0.40;0.00;;;;;;;23.80;56.05;99747.63;104192;1278;95483;-70
2022/06/20 07:25:46;;;;;;;0.40;0.10;;;;;;;23.85;56.22;99760.37;104406;1278;95118;-70
2022/06/20 07:28:40;;;;;;;0.40;0.10;;;;;;;23.85;56.25;99745.29;104274;1277;139262;-70
2022/06/20 07:31:18;;;;;;;0.40;0.00;;;;;;;23.93;56.36;99728.00;104234;1277;99559;-70
2022/06/20 07:33:51;;;;;;;0.40;0.00;;;;;;;24.02;56.75;99740.77;104034;1277;138056;-70
2022/06/20 07:36:29;;;;;;;0.40;0.00;;;;;;;24.09;57.00;99747.86;104120;1277;95655;-71
2022/06/20 07:39:04;;;;;;;0.40;0.00;;;;;;;24.22;56.95;99750.48;104088;1277;138951;-70
2022/06/20 07:41:42;;;;;;;0.40;0.00;;;;;;;24.33;56.86;99755.45;104170;1277;108761;-70
2022/06/20 07:44:49;;;;;;;0.40;0.00;;;;;;;24.38;56.13;99752.20;103291;1277;138762;-69
2022/06/20 07:47:24;;;;;;;0.40;0.00;;;;;;;24.42;55.77;99735.40;103508;1277;107892;-71
2022/06/20 07:49:54;;;;;;;0.40;0.00;;;;;;;24.53;55.86;99721.83;103809;1278;95544;-70
2022/06/20 07:52:35;;;;;;;0.40;0.00;;;;;;;24.60;55.54;99706.94;103683;1277;137876;-70
2022/06/20 07:55:10;;;;;;;0.40;0.00;;;;;;;24.80;55.44;99697.60;104151;1278;108631;-70
2022/06/20 07:57:46;;;;;;;0.40;0.00;;;;;;;24.92;55.00;99680.83;104069;1277;138453;-71
2022/06/20 08:00:28;;;;;;;0.40;0.00;;;;;;;24.87;54.75;99654.63;104064;1278;109017;-70
2022/06/20 08:03:09;;;;;;;0.40;0.00;;;;;;;24.77;54.66;99654.37;103989;1277;138074;-70
2022/06/20 08:05:48;;;;;;;0.40;0.00;;;;;;;24.62;54.84;99648.33;104114;1277;95139;-69
2022/06/20 08:08:25;;;;;;;0.40;0.00;;;;;;;24.46;55.55;99637.54;104040;1278;138537;-69
2022/06/20 08:11:03;;;;;;;0.40;0.00;;;;;;;24.41;56.29;99622.09;104457;1277;99471;-70
2022/06/20 08:13:51;;;;;;;0.40;0.00;;;;;;;24.52;56.24;99618.09;104184;1277;109445;-70
2022/06/20 08:16:29;;;;;;;0.40;0.00;;;;;;;24.72;55.86;99608.04;104017;1277;138873;-70
2022/06/20 08:18:59;;;;;;;0.40;0.00;;;;;;;24.82;55.87;99589.77;104160;1277;95657;-72
2022/06/20 08:21:33;;;;;;;0.40;0.00;;;;;;;25.00;55.68;99576.49;104316;1278;138664;-70
2022/06/20 08:24:05;;;;;;;0.40;0.00;;;;;;;24.91;54.98;99557.83;104161;1280;99717;-71
2022/06/20 08:26:41;;;;;;;0.40;0.00;;;;;;;24.90;55.17;99547.95;104029;1280;138254;-71
2022/06/20 08:29:19;;;;;;;0.40;0.00;;;;;;;24.89;55.41;99536.40;104177;1281;95307;-72
2022/06/20 08:31:58;;;;;;;0.40;0.00;;;;;;;25.16;55.74;99531.31;104204;1281;95235;-70
2022/06/20 08:34:36;;;;;;;0.40;0.00;;;;;;;25.40;54.46;99525.09;104058;1280;109218;-71
2022/06/20 08:37:37;;;;;;;0.40;0.00;;;;;;;25.58;53.70;99514.58;104090;1280;99363;-71
2022/06/20 08:40:26;;;;;;;0.40;0.00;;;;;;;25.81;53.41;99497.76;103996;1280;137916;-71
2022/06/20 08:43:15;;;;;;;0.40;0.00;;;;;;;25.82;51.93;99503.02;104151;1280;95883;-72
2022/06/20 08:46:13;;;;;;;0.40;0.00;;;;;;;25.85;51.97;99503.52;104046;1278;137934;-67
2022/06/20 08:49:18;;;;;;;0.40;0.00;;;;;;;25.93;51.73;99504.45;104224;1278;110030;-71
2022/06/20 08:52:07;;;;;;;0.40;0.00;;;;;;;26.07;52.12;99502.52;104079;1280;138790;-70
2022/06/20 08:54:44;;;;;;;0.40;0.00;;;;;;;26.31;51.52;99503.46;104120;1280;109258;-70
2022/06/20 08:57:24;;;;;;;0.40;0.00;;;;;;;26.53;51.39;99509.89;104013;1281;138821;-71
2022/06/20 09:00:03;;;;;;;0.40;0.00;;;;;;;26.74;49.89;99513.09;104159;1277;95224;-70
2022/06/20 09:02:34;;;;;;;0.40;0.00;;;;;;;26.83;50.39;99517.92;104052;1280;137953;-69
2022/06/20 09:05:20;;;;;;;0.40;0.00;;;;;;;27.12;50.53;99519.02;103487;1278;100157;-71
2022/06/20 09:08:07;;;;;;;0.40;0.00;;;;;;;27.47;48.99;99528.05;104111;1278;108934;-70
2022/06/20 09:10:40;;;;;;;0.40;0.00;;;;;;;27.73;48.19;99533.09;104120;1278;95847;-70
2022/06/20 09:13:27;;;;;;;0.40;0.00;;;;;;;27.92;46.96;99522.11;104146;1280;96572;-70
2022/06/20 09:16:10;;;;;;;0.40;0.00;;;;;;;28.17;47.15;99511.02;103997;1281;137947;-70
2022/06/20 09:18:53;;;;;;;0.40;0.00;;;;;;;28.48;45.79;99508.28;104520;1278;98644;-70
2022/06/20 09:21:36;;;;;;;0.40;0.00;;;;;;;28.77;44.98;99500.71;104072;1278;137975;-70
2022/06/20 09:24:18;;;;;;;0.40;0.00;;;;;;;29.43;44.15;99491.66;104122;1281;95748;-70
2022/06/20 09:27:01;;;;;;;0.40;0.00;;;;;;;30.20;42.34;99476.52;104072;1277;138457;-71
2022/06/20 09:30:07;;;;;;;0.40;0.00;;;;;;;31.05;41.01;99470.98;104178;1278;109712;-70
2022/06/20 09:32:54;;;;;;;0.40;0.00;;;;;;;31.61;39.35;99468.48;103465;1284;137733;-70
2022/06/20 09:35:37;;;;;;;0.40;0.00;;;;;;;32.09;38.33;99473.07;104160;1277;108904;-71
2022/06/20 09:38:40;;;;;;;0.40;0.00;;;;;;;32.55;38.86;99475.59;104104;1277;138359;-71
2022/06/20 09:41:20;;;;;;;0.40;0.00;;;;;;;33.08;36.96;99486.53;104216;1277;95252;-71
2022/06/20 09:43:54;;;;;;;0.40;0.00;;;;;;;33.04;36.65;99491.58;104228;1277;109819;-71
2022/06/20 09:46:47;;;;;;;0.40;0.00;;;;;;;33.11;37.61;99490.48;104258;1277;137889;-71
2022/06/20 09:49:26;;;;;;;0.40;0.00;;;;;;;33.06;37.72;99491.06;104170;1277;109356;-71
2022/06/20 09:52:29;;;;;;;0.40;0.00;;;;;;;32.84;36.56;99492.45;104081;1278;138508;-71
2022/06/20 09:55:14;;;;;;;0.40;0.00;;;;;;;32.50;38.68;99492.79;104158;1278;95220;-70
2022/06/20 09:57:58;;;;;;;0.40;0.00;;;;;;;32.57;37.75;99495.02;104118;1277;138372;-71
2022/06/20 10:00:57;;;;;;;0.40;0.00;;;;;;;32.28;37.39;99494.77;104178;1277;99471;-71
2022/06/20 10:03:52;;;;;;;0.40;0.00;;;;;;;32.06;38.09;99504.45;103947;1277;137846;-70
2022/06/20 10:06:54;;;;;;;0.40;0.00;;;;;;;31.92;37.85;99520.39;104146;1277;95734;-70
2022/06/20 10:09:46;;;;;;;0.40;0.00;;;;;;;31.73;38.62;99524.62;104109;1277;137987;-70
2022/06/20 10:12:21;;;;;;;0.40;0.00;;;;;;;31.79;38.84;99521.90;103397;1277;109992;-70
2022/06/20 10:15:12;;;;;;;0.40;0.00;;;;;;;32.31;38.21;99507.92;104141;1277;138101;-71
2022/06/20 10:17:55;;;;;;;0.40;0.00;;;;;;;33.19;37.48;99506.15;104189;1277;109070;-70
2022/06/20 10:20:33;;;;;;;0.40;0.00;;;;;;;34.33;35.76;99504.41;104017;1279;138354;-70
2022/06/20 10:23:23;;;;;;;0.40;0.00;;;;;;;35.26;34.16;99498.84;104203;1280;95102;-71
2022/06/20 10:26:00;;;;;;;0.40;0.00;;;;;;;36.10;32.89;99490.05;104185;1279;110224;-71
2022/06/20 10:28:43;;;;;;;0.40;0.00;;;;;;;36.77;31.75;99492.41;104211;1280;99445;-71
2022/06/20 10:31:26;;;;;;;0.40;0.00;;;;;;;37.30;31.10;99494.72;104115;1279;108822;-70
2022/06/20 10:34:06;;;;;;;0.40;0.00;;;;;;;37.63;31.16;99488.83;103197;1279;138571;-70
2022/06/20 10:36:44;;;;;;;0.40;0.00;;;;;;;38.15;30.25;99486.14;104139;1279;95622;-70
2022/06/20 10:39:21;;;;;;;0.40;0.00;;;;;;;38.44;29.51;99492.33;104034;1280;138016;-70
2022/06/20 10:42:18;;;;;;;0.40;0.00;;;;;;;38.62;29.25;99489.46;104147;1278;98866;-69
2022/06/20 10:44:58;;;;;;;0.40;0.00;;;;;;;38.78;28.75;99485.86;104098;1279;138132;-70
2022/06/20 10:47:35;;;;;;;0.40;0.00;;;;;;;38.90;28.57;99476.73;104157;1280;96147;-70
2022/06/20 10:50:12;;;;;;;0.40;0.00;;;;;;;38.98;28.24;99478.77;104054;1280;138192;-70
2022/06/20 10:52:48;;;;;;;0.40;0.00;;;;;;;38.87;28.37;99475.60;104105;1279;110202;-71
2022/06/20 10:55:41;;;;;;;0.40;0.00;;;;;;;38.61;29.45;99486.66;104139;1279;99345;-70
2022/06/20 10:58:39;;;;;;;0.40;0.00;;;;;;;38.25;30.29;99508.56;104059;1279;137910;-70
2022/06/20 11:01:24;;;;;;;0.40;0.00;;;;;;;37.39;31.38;99527.60;104122;1279;96023;-70
2022/06/20 11:04:13;;;;;;;0.40;0.00;;;;;;;36.14;32.44;99543.59;104018;1279;138475;-69
2022/06/20 11:06:58;;;;;;;0.40;0.00;;;;;;;35.19;34.00;99556.51;104169;1280;109919;-70
2022/06/20 11:09:35;;;;;;;0.40;0.00;;;;;;;34.02;35.78;99582.14;104006;1279;138173;-70
2022/06/20 11:12:49;;;;;;;0.40;0.00;;;;;;;32.74;37.35;99602.06;104104;1279;108774;-71
2022/06/20 11:15:33;;;;;;;0.40;0.00;;;;;;;31.32;39.10;99623.78;103290;1285;138354;-72
2022/06/20 11:18:19;;;;;;;0.40;0.00;;;;;;;30.16;40.82;99646.09;104075;1277;95601;-72
2022/06/20 11:20:53;;;;;;;0.40;0.00;;;;;;;29.22;42.22;99655.04;104082;1277;138003;-71
2022/06/20 11:23:30;;;;;;;0.40;0.00;;;;;;;28.61;43.53;99654.77;104215;1277;99078;-71
2022/06/20 11:26:23;;;;;;;0.40;0.00;;;;;;;28.11;44.55;99659.95;104178;1277;138126;-71
2022/06/20 11:29:09;;;;;;;0.40;0.00;;;;;;;27.73;45.24;99672.20;104161;1280;96118;-71
2022/06/20 11:31:46;;;;;;;0.40;0.00;;;;;;;27.12;46.32;99672.80;104192;1277;95681;-70
2022/06/20 11:35:08;;;;;;;0.40;0.00;;;;;;;26.60;47.31;99660.48;104035;1277;138296;-72
2022/06/20 11:37:42;;;;;;;0.40;0.00;;;;;;;26.12;48.32;99650.16;103143;1287;99461;-71
2022/06/20 11:40:36;;;;;;;0.40;0.00;;;;;;;25.92;48.71;99647.43;104013;1280;137951;-72
2022/06/20 11:43:14;;;;;;;0.40;0.00;;;;;;;25.90;49.35;99640.14;104160;1277;95180;-70
2022/06/20 11:46:12;;;;;;;0.40;0.00;;;;;;;26.00;49.33;99638.24;104057;1278;138474;-72
2022/06/20 11:48:56;;;;;;;0.40;0.00;;;;;;;25.97;49.56;99635.84;104177;1277;110151;-71
2022/06/20 11:52:07;;;;;;;0.40;0.00;;;;;;;25.82;50.06;99624.98;104035;1277;138179;-71
2022/06/20 11:54:53;;;;;;;0.40;0.00;;;;;;;25.67;50.34;99624.48;104120;1278;109117;-71
2022/06/20 11:57:55;;;;;;;0.40;0.00;;;;;;;25.65;50.62;99625.97;104056;1277;138023;-70
2022/06/20 12:00:34;;;;;;;0.40;0.00;;;;;;;25.53;51.00;99642.80;103868;1280;95868;-70
2022/06/20 12:03:10;;;;;;;0.40;0.00;;;;;;;25.45;50.98;99674.58;104133;1278;137941;-70
2022/06/20 12:05:44;;;;;;;0.40;0.00;;;;;;;25.24;51.46;99707.55;104204;1277;97892;-71
2022/06/20 12:08:29;;;;;;;0.40;0.00;;;;;;;24.95;52.50;99731.20;104116;1277;138969;-70
2022/06/20 12:11:12;;;;;;;0.40;0.00;;;;;;;24.71;53.07;99729.34;104245;1278;96542;-69
2022/06/20 12:14:17;;;;;;;0.40;0.00;;;;;;;24.55;53.89;99685.83;104228;1277;95347;-70
2022/06/20 12:17:14;;;;;;;0.40;0.00;;;;;;;24.38;56.03;99652.67;103442;1278;109392;-71
2022/06/20 12:25:43;;;;;;;0.40;0.00;;;;;;;24.31;57.21;99614.10;104216;1277;95727;-72
2022/06/20 12:28:19;;;;;;;0.40;0.00;;;;;;;24.21;56.98;99619.59;104112;1277;138494;-71
2022/06/20 12:31:07;;;;;;;0.40;0.00;;;;;;;24.13;57.60;99645.20;104311;1277;109815;-71